sensor_id;sensor_type;location;lat;lon;timestamp;P1;durP1;ratioP1;P2;durP2;ratioP2
9799;SDS011;4939;52.00085300;4.17406100;2022-10-15T00:01:14;29.40;;;15.55;;
9799;SDS011;4939;52.00085300;4.17406100;2022-10-15T00:03:41;32.13;;;16.60;;
9799;SDS011;4939;52.00085300;4.17406100;2022-10-15T00:06:11;39.95;;;17.85;;
9799;SDS011;4939;52.00085300;4.17406100;2022-10-15T00:11:12;33.78;;;14.02;;
9799;SDS011;4939;52.00085300;4.17406100;2022-10-15T00:13:38;33.85;;;17.48;;
9799;SDS011;4939;52.00085300;4.17406100;2022-10-15T00:16:08;31.58;;;15.95;;
9799;SDS011;4939;52.00085300;4.17406100;2022-10-15T00:18:35;34.20;;;17.58;;
9799;SDS011;4939;52.00085300;4.17406100;2022-10-15T00:21:04;34.50;;;17.75;;
9799;SDS011;4939;52.00085300;4.17406100;2022-10-15T00:23:30;32.75;;;17.65;;
9799;SDS011;4939;52.00085300;4.17406100;2022-10-15T00:26:00;33.17;;;16.75;;
9799;SDS011;4939;52.00085300;4.17406100;2022-10-15T00:28:26;33.78;;;17.85;;
9799;SDS011;4939;52.00085300;4.17406100;2022-10-15T00:30:52;37.38;;;18.63;;
9799;SDS011;4939;52.00085300;4.17406100;2022-10-15T00:33:24;41.42;;;20.40;;
9799;SDS011;4939;52.00085300;4.17406100;2022-10-15T00:35:57;32.40;;;15.80;;
9799;SDS011;4939;52.00085300;4.17406100;2022-10-15T00:38:23;44.05;;;19.85;;
9799;SDS011;4939;52.00085300;4.17406100;2022-10-15T00:40:49;39.58;;;19.77;;
9799;SDS011;4939;52.00085300;4.17406100;2022-10-15T00:43:15;33.30;;;17.30;;
9799;SDS011;4939;52.00085300;4.17406100;2022-10-15T00:45:41;32.72;;;16.65;;
9799;SDS011;4939;52.00085300;4.17406100;2022-10-15T00:48:07;33.22;;;16.08;;
9799;SDS011;4939;52.00085300;4.17406100;2022-10-15T00:50:34;39.55;;;17.27;;
9799;SDS011;4939;52.00085300;4.17406100;2022-10-15T00:53:05;33.05;;;16.30;;
9799;SDS011;4939;52.00085300;4.17406100;2022-10-15T00:55:33;29.58;;;14.45;;
9799;SDS011;4939;52.00085300;4.17406100;2022-10-15T00:58:05;30.80;;;15.80;;
9799;SDS011;4939;52.00085300;4.17406100;2022-10-15T01:00:32;30.83;;;15.57;;
9799;SDS011;4939;52.00085300;4.17406100;2022-10-15T01:02:59;32.33;;;15.27;;
9799;SDS011;4939;52.00085300;4.17406100;2022-10-15T01:05:25;33.92;;;15.32;;
9799;SDS011;4939;52.00085300;4.17406100;2022-10-15T01:07:51;33.75;;;16.73;;
9799;SDS011;4939;52.00085300;4.17406100;2022-10-15T01:10:17;33.08;;;15.18;;
9799;SDS011;4939;52.00085300;4.17406100;2022-10-15T01:12:51;32.95;;;16.58;;
9799;SDS011;4939;52.00085300;4.17406100;2022-10-15T01:18:07;32.80;;;15.48;;
9799;SDS011;4939;52.00085300;4.17406100;2022-10-15T01:26:06;30.38;;;15.05;;
9799;SDS011;4939;52.00085300;4.17406100;2022-10-15T01:31:18;31.08;;;15.15;;
9799;SDS011;4939;52.00085300;4.17406100;2022-10-15T01:34:03;33.40;;;15.68;;
9799;SDS011;4939;52.00085300;4.17406100;2022-10-15T01:36:52;32.80;;;16.27;;
9799;SDS011;4939;52.00085300;4.17406100;2022-10-15T01:39:38;35.97;;;17.58;;
9799;SDS011;4939;52.00085300;4.17406100;2022-10-15T01:42:16;36.78;;;16.50;;
9799;SDS011;4939;52.00085300;4.17406100;2022-10-15T01:44:45;39.00;;;17.65;;
9799;SDS011;4939;52.00085300;4.17406100;2022-10-15T01:47:19;41.08;;;19.52;;
9799;SDS011;4939;52.00085300;4.17406100;2022-10-15T01:49:47;40.40;;;19.58;;
9799;SDS011;4939;52.00085300;4.17406100;2022-10-15T01:52:15;32.92;;;18.50;;
9799;SDS011;4939;52.00085300;4.17406100;2022-10-15T01:54:43;36.15;;;18.65;;
9799;SDS011;4939;52.00085300;4.17406100;2022-10-15T01:57:10;36.17;;;17.95;;
9799;SDS011;4939;52.00085300;4.17406100;2022-10-15T01:59:37;36.03;;;17.92;;
9799;SDS011;4939;52.00085300;4.17406100;2022-10-15T02:02:03;38.92;;;18.50;;
9799;SDS011;4939;52.00085300;4.17406100;2022-10-15T02:04:30;36.03;;;17.77;;
9799;SDS011;4939;52.00085300;4.17406100;2022-10-15T02:06:58;38.00;;;17.67;;
9799;SDS011;4939;52.00085300;4.17406100;2022-10-15T02:09:31;40.55;;;17.15;;
9799;SDS011;4939;52.00085300;4.17406100;2022-10-15T02:14:46;35.58;;;17.30;;
9799;SDS011;4939;52.00085300;4.17406100;2022-10-15T02:17:14;40.53;;;18.08;;
9799;SDS011;4939;52.00085300;4.17406100;2022-10-15T02:19:44;41.00;;;20.05;;
9799;SDS011;4939;52.00085300;4.17406100;2022-10-15T02:22:19;37.75;;;18.00;;
9799;SDS011;4939;52.00085300;4.17406100;2022-10-15T02:24:57;39.90;;;18.60;;
9799;SDS011;4939;52.00085300;4.17406100;2022-10-15T02:27:26;44.17;;;18.95;;
9799;SDS011;4939;52.00085300;4.17406100;2022-10-15T02:29:54;44.70;;;20.08;;
9799;SDS011;4939;52.00085300;4.17406100;2022-10-15T02:32:21;40.78;;;19.00;;
9799;SDS011;4939;52.00085300;4.17406100;2022-10-15T02:34:48;48.28;;;20.17;;
9799;SDS011;4939;52.00085300;4.17406100;2022-10-15T02:37:15;43.38;;;20.55;;
9799;SDS011;4939;52.00085300;4.17406100;2022-10-15T02:39:43;45.22;;;21.33;;
9799;SDS011;4939;52.00085300;4.17406100;2022-10-15T02:42:09;39.63;;;20.70;;
9799;SDS011;4939;52.00085300;4.17406100;2022-10-15T02:44:36;40.78;;;20.55;;
9799;SDS011;4939;52.00085300;4.17406100;2022-10-15T02:47:02;38.58;;;19.08;;
9799;SDS011;4939;52.00085300;4.17406100;2022-10-15T02:49:28;37.53;;;18.75;;
9799;SDS011;4939;52.00085300;4.17406100;2022-10-15T02:51:54;41.47;;;19.90;;
9799;SDS011;4939;52.00085300;4.17406100;2022-10-15T02:54:20;44.05;;;21.83;;
9799;SDS011;4939;52.00085300;4.17406100;2022-10-15T02:56:46;46.75;;;22.50;;
9799;SDS011;4939;52.00085300;4.17406100;2022-10-15T02:59:12;41.42;;;21.20;;
9799;SDS011;4939;52.00085300;4.17406100;2022-10-15T03:01:39;46.45;;;22.00;;
9799;SDS011;4939;52.00085300;4.17406100;2022-10-15T03:04:05;42.15;;;21.77;;
9799;SDS011;4939;52.00085300;4.17406100;2022-10-15T03:06:31;46.50;;;20.73;;
9799;SDS011;4939;52.00085300;4.17406100;2022-10-15T03:08:57;45.05;;;22.67;;
9799;SDS011;4939;52.00085300;4.17406100;2022-10-15T03:11:23;41.08;;;21.15;;
9799;SDS011;4939;52.00085300;4.17406100;2022-10-15T03:13:49;40.17;;;20.15;;
9799;SDS011;4939;52.00085300;4.17406100;2022-10-15T03:16:15;46.08;;;22.92;;
9799;SDS011;4939;52.00085300;4.17406100;2022-10-15T03:18:41;46.08;;;23.65;;
9799;SDS011;4939;52.00085300;4.17406100;2022-10-15T03:21:07;45.63;;;21.98;;
9799;SDS011;4939;52.00085300;4.17406100;2022-10-15T03:23:34;48.33;;;24.00;;
9799;SDS011;4939;52.00085300;4.17406100;2022-10-15T03:26:00;48.28;;;22.40;;
9799;SDS011;4939;52.00085300;4.17406100;2022-10-15T03:28:26;50.38;;;24.25;;
9799;SDS011;4939;52.00085300;4.17406100;2022-10-15T03:30:52;48.88;;;23.83;;
9799;SDS011;4939;52.00085300;4.17406100;2022-10-15T03:33:18;51.20;;;24.67;;
9799;SDS011;4939;52.00085300;4.17406100;2022-10-15T03:35:44;49.83;;;24.63;;
9799;SDS011;4939;52.00085300;4.17406100;2022-10-15T03:38:10;50.72;;;25.80;;
9799;SDS011;4939;52.00085300;4.17406100;2022-10-15T03:40:36;56.17;;;25.65;;
9799;SDS011;4939;52.00085300;4.17406100;2022-10-15T03:43:03;51.42;;;24.35;;
9799;SDS011;4939;52.00085300;4.17406100;2022-10-15T03:45:29;52.13;;;24.83;;
9799;SDS011;4939;52.00085300;4.17406100;2022-10-15T03:47:55;48.95;;;23.95;;
9799;SDS011;4939;52.00085300;4.17406100;2022-10-15T03:50:21;58.72;;;25.90;;
9799;SDS011;4939;52.00085300;4.17406100;2022-10-15T03:52:47;49.92;;;23.75;;
9799;SDS011;4939;52.00085300;4.17406100;2022-10-15T03:55:13;49.17;;;24.38;;
9799;SDS011;4939;52.00085300;4.17406100;2022-10-15T03:57:40;46.90;;;23.17;;
9799;SDS011;4939;52.00085300;4.17406100;2022-10-15T04:00:06;48.53;;;23.88;;
9799;SDS011;4939;52.00085300;4.17406100;2022-10-15T04:02:33;48.13;;;22.65;;
9799;SDS011;4939;52.00085300;4.17406100;2022-10-15T04:04:59;51.78;;;23.52;;
9799;SDS011;4939;52.00085300;4.17406100;2022-10-15T04:07:25;49.13;;;22.63;;
9799;SDS011;4939;52.00085300;4.17406100;2022-10-15T04:09:51;47.88;;;23.77;;
9799;SDS011;4939;52.00085300;4.17406100;2022-10-15T04:12:17;48.08;;;24.15;;
9799;SDS011;4939;52.00085300;4.17406100;2022-10-15T04:14:43;48.95;;;23.60;;
9799;SDS011;4939;52.00085300;4.17406100;2022-10-15T04:17:10;42.50;;;21.27;;
9799;SDS011;4939;52.00085300;4.17406100;2022-10-15T04:19:36;42.78;;;21.95;;
9799;SDS011;4939;52.00085300;4.17406100;2022-10-15T04:22:02;44.15;;;22.13;;
9799;SDS011;4939;52.00085300;4.17406100;2022-10-15T04:24:29;45.22;;;20.95;;
9799;SDS011;4939;52.00085300;4.17406100;2022-10-15T04:26:55;45.50;;;21.63;;
9799;SDS011;4939;52.00085300;4.17406100;2022-10-15T04:29:21;46.58;;;21.65;;
9799;SDS011;4939;52.00085300;4.17406100;2022-10-15T04:31:47;43.80;;;21.05;;
9799;SDS011;4939;52.00085300;4.17406100;2022-10-15T04:34:13;41.35;;;22.00;;
9799;SDS011;4939;52.00085300;4.17406100;2022-10-15T04:36:39;42.03;;;21.73;;
9799;SDS011;4939;52.00085300;4.17406100;2022-10-15T04:39:06;43.22;;;21.92;;
9799;SDS011;4939;52.00085300;4.17406100;2022-10-15T04:41:32;39.85;;;20.95;;
9799;SDS011;4939;52.00085300;4.17406100;2022-10-15T04:43:58;39.95;;;20.23;;
9799;SDS011;4939;52.00085300;4.17406100;2022-10-15T04:46:24;43.65;;;20.05;;
9799;SDS011;4939;52.00085300;4.17406100;2022-10-15T04:48:51;42.72;;;21.02;;
9799;SDS011;4939;52.00085300;4.17406100;2022-10-15T04:51:21;46.03;;;20.58;;
9799;SDS011;4939;52.00085300;4.17406100;2022-10-15T04:53:48;41.97;;;19.98;;
9799;SDS011;4939;52.00085300;4.17406100;2022-10-15T04:56:15;44.25;;;21.45;;
9799;SDS011;4939;52.00085300;4.17406100;2022-10-15T04:58:42;45.08;;;21.42;;
9799;SDS011;4939;52.00085300;4.17406100;2022-10-15T05:01:09;44.80;;;20.73;;
9799;SDS011;4939;52.00085300;4.17406100;2022-10-15T05:03:39;47.70;;;21.23;;
9799;SDS011;4939;52.00085300;4.17406100;2022-10-15T05:06:07;51.22;;;22.23;;
9799;SDS011;4939;52.00085300;4.17406100;2022-10-15T05:08:34;44.08;;;20.70;;
9799;SDS011;4939;52.00085300;4.17406100;2022-10-15T05:11:04;46.88;;;21.42;;
9799;SDS011;4939;52.00085300;4.17406100;2022-10-15T05:13:31;46.35;;;21.48;;
9799;SDS011;4939;52.00085300;4.17406100;2022-10-15T05:16:06;51.15;;;23.02;;
9799;SDS011;4939;52.00085300;4.17406100;2022-10-15T05:18:33;46.80;;;21.40;;
9799;SDS011;4939;52.00085300;4.17406100;2022-10-15T05:21:02;49.70;;;23.00;;
9799;SDS011;4939;52.00085300;4.17406100;2022-10-15T05:23:28;52.00;;;23.35;;
9799;SDS011;4939;52.00085300;4.17406100;2022-10-15T05:25:57;56.60;;;25.10;;
9799;SDS011;4939;52.00085300;4.17406100;2022-10-15T05:28:23;63.78;;;24.38;;
9799;SDS011;4939;52.00085300;4.17406100;2022-10-15T05:30:49;60.55;;;24.70;;
9799;SDS011;4939;52.00085300;4.17406100;2022-10-15T05:33:16;63.28;;;25.60;;
9799;SDS011;4939;52.00085300;4.17406100;2022-10-15T05:35:42;72.57;;;27.05;;
9799;SDS011;4939;52.00085300;4.17406100;2022-10-15T05:38:08;62.15;;;25.15;;
9799;SDS011;4939;52.00085300;4.17406100;2022-10-15T05:40:34;63.88;;;26.30;;
9799;SDS011;4939;52.00085300;4.17406100;2022-10-15T05:43:00;64.57;;;25.05;;
9799;SDS011;4939;52.00085300;4.17406100;2022-10-15T05:45:26;58.55;;;25.42;;
9799;SDS011;4939;52.00085300;4.17406100;2022-10-15T05:47:55;61.17;;;24.60;;
9799;SDS011;4939;52.00085300;4.17406100;2022-10-15T05:50:22;53.47;;;22.42;;
9799;SDS011;4939;52.00085300;4.17406100;2022-10-15T05:52:48;50.72;;;22.10;;
9799;SDS011;4939;52.00085300;4.17406100;2022-10-15T05:55:14;45.17;;;20.45;;
9799;SDS011;4939;52.00085300;4.17406100;2022-10-15T05:57:40;41.92;;;18.20;;
9799;SDS011;4939;52.00085300;4.17406100;2022-10-15T06:00:06;46.10;;;19.40;;
9799;SDS011;4939;52.00085300;4.17406100;2022-10-15T06:02:33;44.10;;;21.48;;
9799;SDS011;4939;52.00085300;4.17406100;2022-10-15T06:04:59;37.97;;;17.77;;
9799;SDS011;4939;52.00085300;4.17406100;2022-10-15T06:07:25;45.33;;;18.90;;
9799;SDS011;4939;52.00085300;4.17406100;2022-10-15T06:09:51;37.25;;;17.73;;
9799;SDS011;4939;52.00085300;4.17406100;2022-10-15T06:12:18;44.20;;;18.67;;
9799;SDS011;4939;52.00085300;4.17406100;2022-10-15T06:14:44;42.42;;;19.10;;
9799;SDS011;4939;52.00085300;4.17406100;2022-10-15T06:17:10;45.70;;;20.13;;
9799;SDS011;4939;52.00085300;4.17406100;2022-10-15T06:19:36;38.20;;;18.42;;
9799;SDS011;4939;52.00085300;4.17406100;2022-10-15T06:22:02;43.78;;;18.52;;
9799;SDS011;4939;52.00085300;4.17406100;2022-10-15T06:24:28;40.95;;;19.33;;
9799;SDS011;4939;52.00085300;4.17406100;2022-10-15T06:26:56;40.13;;;19.35;;
9799;SDS011;4939;52.00085300;4.17406100;2022-10-15T06:29:22;42.75;;;20.13;;
9799;SDS011;4939;52.00085300;4.17406100;2022-10-15T06:31:48;43.28;;;20.05;;
9799;SDS011;4939;52.00085300;4.17406100;2022-10-15T06:34:15;41.42;;;19.73;;
9799;SDS011;4939;52.00085300;4.17406100;2022-10-15T06:36:41;41.15;;;18.67;;
9799;SDS011;4939;52.00085300;4.17406100;2022-10-15T06:39:07;46.03;;;20.48;;
9799;SDS011;4939;52.00085300;4.17406100;2022-10-15T06:41:33;41.47;;;18.95;;
9799;SDS011;4939;52.00085300;4.17406100;2022-10-15T06:43:59;41.08;;;20.27;;
9799;SDS011;4939;52.00085300;4.17406100;2022-10-15T06:46:25;43.03;;;20.52;;
9799;SDS011;4939;52.00085300;4.17406100;2022-10-15T06:48:51;48.72;;;22.33;;
9799;SDS011;4939;52.00085300;4.17406100;2022-10-15T06:51:18;45.85;;;20.52;;
9799;SDS011;4939;52.00085300;4.17406100;2022-10-15T06:53:44;54.13;;;23.58;;
9799;SDS011;4939;52.00085300;4.17406100;2022-10-15T06:56:10;56.60;;;23.45;;
9799;SDS011;4939;52.00085300;4.17406100;2022-10-15T06:58:36;55.35;;;22.73;;
9799;SDS011;4939;52.00085300;4.17406100;2022-10-15T07:01:03;60.28;;;24.40;;
9799;SDS011;4939;52.00085300;4.17406100;2022-10-15T07:03:30;64.95;;;24.98;;
9799;SDS011;4939;52.00085300;4.17406100;2022-10-15T07:06:00;63.45;;;26.38;;
9799;SDS011;4939;52.00085300;4.17406100;2022-10-15T07:08:27;67.93;;;26.60;;
9799;SDS011;4939;52.00085300;4.17406100;2022-10-15T07:10:53;70.40;;;25.90;;
9799;SDS011;4939;52.00085300;4.17406100;2022-10-15T07:13:20;70.47;;;27.27;;
9799;SDS011;4939;52.00085300;4.17406100;2022-10-15T07:15:46;65.53;;;27.23;;
9799;SDS011;4939;52.00085300;4.17406100;2022-10-15T07:18:17;68.90;;;28.02;;
9799;SDS011;4939;52.00085300;4.17406100;2022-10-15T07:20:43;61.95;;;26.10;;
9799;SDS011;4939;52.00085300;4.17406100;2022-10-15T07:23:09;64.93;;;26.33;;
9799;SDS011;4939;52.00085300;4.17406100;2022-10-15T07:25:35;61.05;;;26.08;;
9799;SDS011;4939;52.00085300;4.17406100;2022-10-15T07:28:02;71.60;;;27.40;;
9799;SDS011;4939;52.00085300;4.17406100;2022-10-15T07:30:29;64.97;;;25.15;;
9799;SDS011;4939;52.00085300;4.17406100;2022-10-15T07:32:55;64.10;;;26.45;;
9799;SDS011;4939;52.00085300;4.17406100;2022-10-15T07:35:21;61.42;;;24.88;;
9799;SDS011;4939;52.00085300;4.17406100;2022-10-15T07:37:47;64.72;;;24.55;;
9799;SDS011;4939;52.00085300;4.17406100;2022-10-15T07:40:15;64.35;;;26.23;;
9799;SDS011;4939;52.00085300;4.17406100;2022-10-15T07:42:41;60.22;;;24.77;;
9799;SDS011;4939;52.00085300;4.17406100;2022-10-15T07:45:07;54.53;;;25.30;;
9799;SDS011;4939;52.00085300;4.17406100;2022-10-15T07:47:33;52.20;;;23.35;;
9799;SDS011;4939;52.00085300;4.17406100;2022-10-15T07:49:59;53.55;;;22.40;;
9799;SDS011;4939;52.00085300;4.17406100;2022-10-15T07:52:25;54.97;;;24.33;;
9799;SDS011;4939;52.00085300;4.17406100;2022-10-15T07:54:51;55.20;;;23.70;;
9799;SDS011;4939;52.00085300;4.17406100;2022-10-15T07:57:17;51.80;;;21.65;;
9799;SDS011;4939;52.00085300;4.17406100;2022-10-15T07:59:44;49.17;;;19.55;;
9799;SDS011;4939;52.00085300;4.17406100;2022-10-15T08:02:13;42.42;;;20.17;;
9799;SDS011;4939;52.00085300;4.17406100;2022-10-15T08:04:40;38.60;;;18.23;;
9799;SDS011;4939;52.00085300;4.17406100;2022-10-15T08:07:06;40.30;;;18.05;;
9799;SDS011;4939;52.00085300;4.17406100;2022-10-15T08:09:32;35.80;;;17.35;;
9799;SDS011;4939;52.00085300;4.17406100;2022-10-15T08:11:58;34.22;;;16.52;;
9799;SDS011;4939;52.00085300;4.17406100;2022-10-15T08:14:24;33.60;;;15.80;;
9799;SDS011;4939;52.00085300;4.17406100;2022-10-15T08:16:50;29.48;;;13.80;;
9799;SDS011;4939;52.00085300;4.17406100;2022-10-15T08:19:16;29.25;;;13.90;;
9799;SDS011;4939;52.00085300;4.17406100;2022-10-15T08:21:42;35.75;;;17.27;;
9799;SDS011;4939;52.00085300;4.17406100;2022-10-15T08:24:09;31.60;;;15.68;;
9799;SDS011;4939;52.00085300;4.17406100;2022-10-15T08:26:35;34.47;;;15.05;;
9799;SDS011;4939;52.00085300;4.17406100;2022-10-15T08:29:01;29.25;;;14.10;;
9799;SDS011;4939;52.00085300;4.17406100;2022-10-15T08:31:28;28.85;;;13.02;;
9799;SDS011;4939;52.00085300;4.17406100;2022-10-15T08:33:55;29.20;;;13.35;;
9799;SDS011;4939;52.00085300;4.17406100;2022-10-15T08:36:23;27.15;;;14.63;;
9799;SDS011;4939;52.00085300;4.17406100;2022-10-15T08:38:49;30.63;;;13.68;;
9799;SDS011;4939;52.00085300;4.17406100;2022-10-15T08:41:23;27.63;;;13.40;;
9799;SDS011;4939;52.00085300;4.17406100;2022-10-15T08:43:50;27.88;;;13.70;;
9799;SDS011;4939;52.00085300;4.17406100;2022-10-15T08:49:02;27.55;;;12.50;;
9799;SDS011;4939;52.00085300;4.17406100;2022-10-15T08:51:44;28.77;;;12.70;;
9799;SDS011;4939;52.00085300;4.17406100;2022-10-15T08:54:15;30.80;;;13.32;;
9799;SDS011;4939;52.00085300;4.17406100;2022-10-15T08:56:44;25.42;;;13.15;;
9799;SDS011;4939;52.00085300;4.17406100;2022-10-15T08:59:26;26.48;;;12.93;;
9799;SDS011;4939;52.00085300;4.17406100;2022-10-15T09:02:02;28.40;;;13.00;;
9799;SDS011;4939;52.00085300;4.17406100;2022-10-15T09:04:36;27.42;;;13.15;;
9799;SDS011;4939;52.00085300;4.17406100;2022-10-15T09:07:13;25.10;;;12.63;;
9799;SDS011;4939;52.00085300;4.17406100;2022-10-15T09:09:48;24.40;;;12.27;;
9799;SDS011;4939;52.00085300;4.17406100;2022-10-15T09:15:01;21.55;;;10.18;;
9799;SDS011;4939;52.00085300;4.17406100;2022-10-15T09:17:28;23.50;;;10.77;;
9799;SDS011;4939;52.00085300;4.17406100;2022-10-15T09:19:56;24.65;;;11.45;;
9799;SDS011;4939;52.00085300;4.17406100;2022-10-15T09:22:26;27.15;;;10.85;;
9799;SDS011;4939;52.00085300;4.17406100;2022-10-15T09:24:52;25.33;;;11.38;;
9799;SDS011;4939;52.00085300;4.17406100;2022-10-15T09:32:38;25.10;;;11.98;;
9799;SDS011;4939;52.00085300;4.17406100;2022-10-15T09:35:23;23.10;;;11.23;;
9799;SDS011;4939;52.00085300;4.17406100;2022-10-15T09:40:43;24.67;;;11.05;;
9799;SDS011;4939;52.00085300;4.17406100;2022-10-15T09:43:14;24.60;;;12.23;;
9799;SDS011;4939;52.00085300;4.17406100;2022-10-15T09:45:44;23.25;;;10.57;;
9799;SDS011;4939;52.00085300;4.17406100;2022-10-15T09:48:16;23.27;;;9.98;;
9799;SDS011;4939;52.00085300;4.17406100;2022-10-15T09:50:45;22.48;;;10.75;;
9799;SDS011;4939;52.00085300;4.17406100;2022-10-15T09:55:46;19.15;;;9.40;;
9799;SDS011;4939;52.00085300;4.17406100;2022-10-15T09:58:15;23.13;;;10.20;;
9799;SDS011;4939;52.00085300;4.17406100;2022-10-15T10:00:50;20.98;;;9.75;;
9799;SDS011;4939;52.00085300;4.17406100;2022-10-15T10:03:17;18.50;;;8.25;;
9799;SDS011;4939;52.00085300;4.17406100;2022-10-15T10:05:46;20.38;;;9.07;;
9799;SDS011;4939;52.00085300;4.17406100;2022-10-15T10:10:38;18.35;;;8.43;;
9799;SDS011;4939;52.00085300;4.17406100;2022-10-15T10:13:05;18.40;;;8.23;;
9799;SDS011;4939;52.00085300;4.17406100;2022-10-15T10:15:33;17.02;;;7.20;;
9799;SDS011;4939;52.00085300;4.17406100;2022-10-15T10:17:59;18.60;;;8.10;;
9799;SDS011;4939;52.00085300;4.17406100;2022-10-15T10:20:29;12.60;;;6.30;;
9799;SDS011;4939;52.00085300;4.17406100;2022-10-15T10:22:58;11.00;;;5.40;;
9799;SDS011;4939;52.00085300;4.17406100;2022-10-15T10:27:58;11.60;;;4.75;;
9799;SDS011;4939;52.00085300;4.17406100;2022-10-15T10:30:35;12.45;;;4.68;;
9799;SDS011;4939;52.00085300;4.17406100;2022-10-15T10:33:02;12.57;;;5.35;;
9799;SDS011;4939;52.00085300;4.17406100;2022-10-15T10:35:43;13.15;;;6.15;;
9799;SDS011;4939;52.00085300;4.17406100;2022-10-15T10:38:22;15.48;;;6.60;;
9799;SDS011;4939;52.00085300;4.17406100;2022-10-15T10:40:52;14.65;;;6.72;;
9799;SDS011;4939;52.00085300;4.17406100;2022-10-15T10:43:23;15.20;;;7.03;;
9799;SDS011;4939;52.00085300;4.17406100;2022-10-15T10:48:17;15.82;;;8.40;;
9799;SDS011;4939;52.00085300;4.17406100;2022-10-15T10:50:44;17.52;;;8.55;;
9799;SDS011;4939;52.00085300;4.17406100;2022-10-15T10:53:15;20.85;;;9.65;;
9799;SDS011;4939;52.00085300;4.17406100;2022-10-15T10:55:44;19.38;;;10.40;;
9799;SDS011;4939;52.00085300;4.17406100;2022-10-15T10:58:12;18.60;;;9.82;;
9799;SDS011;4939;52.00085300;4.17406100;2022-10-15T11:00:44;16.83;;;8.77;;
9799;SDS011;4939;52.00085300;4.17406100;2022-10-15T11:03:32;15.27;;;8.18;;
9799;SDS011;4939;52.00085300;4.17406100;2022-10-15T11:13:43;13.13;;;6.65;;
9799;SDS011;4939;52.00085300;4.17406100;2022-10-15T11:21:24;13.52;;;6.70;;
9799;SDS011;4939;52.00085300;4.17406100;2022-10-15T11:24:08;12.43;;;6.18;;
9799;SDS011;4939;52.00085300;4.17406100;2022-10-15T11:29:43;13.77;;;6.78;;
9799;SDS011;4939;52.00085300;4.17406100;2022-10-15T11:32:20;11.48;;;5.45;;
9799;SDS011;4939;52.00085300;4.17406100;2022-10-15T11:37:28;16.90;;;8.70;;
9799;SDS011;4939;52.00085300;4.17406100;2022-10-15T11:42:42;12.25;;;6.55;;
9799;SDS011;4939;52.00085300;4.17406100;2022-10-15T11:47:52;12.65;;;6.70;;
9799;SDS011;4939;52.00085300;4.17406100;2022-10-15T11:55:41;14.75;;;7.55;;
9799;SDS011;4939;52.00085300;4.17406100;2022-10-15T11:58:15;11.95;;;6.30;;
9799;SDS011;4939;52.00085300;4.17406100;2022-10-15T12:00:44;11.38;;;5.40;;
9799;SDS011;4939;52.00085300;4.17406100;2022-10-15T12:03:18;10.85;;;5.38;;
9799;SDS011;4939;52.00085300;4.17406100;2022-10-15T12:05:49;12.93;;;5.55;;
9799;SDS011;4939;52.00085300;4.17406100;2022-10-15T12:08:16;11.88;;;5.88;;
9799;SDS011;4939;52.00085300;4.17406100;2022-10-15T12:16:03;11.38;;;5.32;;
9799;SDS011;4939;52.00085300;4.17406100;2022-10-15T12:23:58;11.77;;;5.00;;
9799;SDS011;4939;52.00085300;4.17406100;2022-10-15T12:28:51;6.40;;;2.92;;
9799;SDS011;4939;52.00085300;4.17406100;2022-10-15T12:31:17;6.32;;;2.50;;
9799;SDS011;4939;52.00085300;4.17406100;2022-10-15T12:41:40;2.75;;;1.10;;
9799;SDS011;4939;52.00085300;4.17406100;2022-10-15T12:44:19;3.90;;;1.63;;
9799;SDS011;4939;52.00085300;4.17406100;2022-10-15T12:46:45;5.20;;;1.70;;
9799;SDS011;4939;52.00085300;4.17406100;2022-10-15T12:51:57;4.63;;;1.20;;
9799;SDS011;4939;52.00085300;4.17406100;2022-10-15T12:56:55;7.85;;;1.35;;
9799;SDS011;4939;52.00085300;4.17406100;2022-10-15T12:59:28;4.65;;;1.00;;
9799;SDS011;4939;52.00085300;4.17406100;2022-10-15T13:01:55;3.75;;;1.02;;
9799;SDS011;4939;52.00085300;4.17406100;2022-10-15T13:04:21;3.85;;;1.17;;
9799;SDS011;4939;52.00085300;4.17406100;2022-10-15T13:06:47;7.95;;;1.83;;
9799;SDS011;4939;52.00085300;4.17406100;2022-10-15T13:16:46;8.68;;;1.10;;
9799;SDS011;4939;52.00085300;4.17406100;2022-10-15T13:19:19;3.83;;;1.13;;
9799;SDS011;4939;52.00085300;4.17406100;2022-10-15T13:21:53;5.22;;;1.35;;
9799;SDS011;4939;52.00085300;4.17406100;2022-10-15T13:24:20;4.60;;;1.00;;
9799;SDS011;4939;52.00085300;4.17406100;2022-10-15T13:26:47;6.18;;;1.42;;
9799;SDS011;4939;52.00085300;4.17406100;2022-10-15T13:29:14;6.13;;;1.73;;
9799;SDS011;4939;52.00085300;4.17406100;2022-10-15T13:31:40;5.78;;;1.50;;
9799;SDS011;4939;52.00085300;4.17406100;2022-10-15T13:36:35;8.13;;;2.00;;
9799;SDS011;4939;52.00085300;4.17406100;2022-10-15T13:39:03;5.53;;;1.70;;
9799;SDS011;4939;52.00085300;4.17406100;2022-10-15T13:41:30;4.53;;;1.27;;
9799;SDS011;4939;52.00085300;4.17406100;2022-10-15T13:43:58;6.20;;;1.25;;
9799;SDS011;4939;52.00085300;4.17406100;2022-10-15T13:46:26;4.40;;;1.30;;
9799;SDS011;4939;52.00085300;4.17406100;2022-10-15T13:48:56;6.15;;;1.40;;
9799;SDS011;4939;52.00085300;4.17406100;2022-10-15T13:51:23;7.75;;;1.15;;
9799;SDS011;4939;52.00085300;4.17406100;2022-10-15T13:53:50;8.20;;;1.33;;
9799;SDS011;4939;52.00085300;4.17406100;2022-10-15T13:56:23;6.43;;;1.30;;
9799;SDS011;4939;52.00085300;4.17406100;2022-10-15T13:58:49;8.55;;;1.55;;
9799;SDS011;4939;52.00085300;4.17406100;2022-10-15T14:01:17;8.18;;;1.77;;
9799;SDS011;4939;52.00085300;4.17406100;2022-10-15T14:03:48;9.13;;;1.40;;
9799;SDS011;4939;52.00085300;4.17406100;2022-10-15T14:06:19;9.40;;;1.50;;
9799;SDS011;4939;52.00085300;4.17406100;2022-10-15T14:08:55;5.43;;;1.65;;
9799;SDS011;4939;52.00085300;4.17406100;2022-10-15T14:11:22;5.95;;;1.58;;
9799;SDS011;4939;52.00085300;4.17406100;2022-10-15T14:13:52;7.28;;;1.60;;
9799;SDS011;4939;52.00085300;4.17406100;2022-10-15T14:16:23;5.30;;;1.85;;
9799;SDS011;4939;52.00085300;4.17406100;2022-10-15T14:18:54;6.38;;;1.77;;
9799;SDS011;4939;52.00085300;4.17406100;2022-10-15T14:21:22;6.00;;;1.70;;
9799;SDS011;4939;52.00085300;4.17406100;2022-10-15T14:24:06;9.10;;;1.35;;
9799;SDS011;4939;52.00085300;4.17406100;2022-10-15T14:26:37;6.10;;;1.75;;
9799;SDS011;4939;52.00085300;4.17406100;2022-10-15T14:29:04;9.05;;;1.42;;
9799;SDS011;4939;52.00085300;4.17406100;2022-10-15T14:31:37;8.65;;;1.88;;
9799;SDS011;4939;52.00085300;4.17406100;2022-10-15T14:34:04;13.55;;;2.10;;
9799;SDS011;4939;52.00085300;4.17406100;2022-10-15T14:36:31;8.55;;;1.45;;
9799;SDS011;4939;52.00085300;4.17406100;2022-10-15T14:39:25;5.65;;;1.35;;
9799;SDS011;4939;52.00085300;4.17406100;2022-10-15T14:41:56;8.35;;;1.60;;
9799;SDS011;4939;52.00085300;4.17406100;2022-10-15T14:44:22;7.80;;;1.52;;
9799;SDS011;4939;52.00085300;4.17406100;2022-10-15T14:46:49;10.88;;;1.60;;